sensor_id;sensor_type;location;lat;lon;timestamp;temperature;humidity
12413;DHT22;13877;18.896;-99.222;2023-04-25T00:00:50;33.30;19.30
12413;DHT22;13877;18.896;-99.222;2023-04-25T00:03:18;33.70;19.10
12413;DHT22;13877;18.896;-99.222;2023-04-25T00:05:45;33.60;18.50
12413;DHT22;13877;18.896;-99.222;2023-04-25T00:08:12;32.60;18.70
12413;DHT22;13877;18.896;-99.222;2023-04-25T00:10:40;31.70;19.40
12413;DHT22;13877;18.896;-99.222;2023-04-25T00:13:06;31.80;18.80
12413;DHT22;13877;18.896;-99.222;2023-04-25T00:15:34;32.00;19.60
12413;DHT22;13877;18.896;-99.222;2023-04-25T00:18:02;32.20;18.60
12413;DHT22;13877;18.896;-99.222;2023-04-25T00:20:29;32.10;17.80
12413;DHT22;13877;18.896;-99.222;2023-04-25T00:22:57;32.10;17.30
12413;DHT22;13877;18.896;-99.222;2023-04-25T00:25:25;32.00;17.30
12413;DHT22;13877;18.896;-99.222;2023-04-25T00:27:52;31.80;17.30
12413;DHT22;13877;18.896;-99.222;2023-04-25T00:30:19;31.30;18.20
12413;DHT22;13877;18.896;-99.222;2023-04-25T00:32:46;30.90;18.10
12413;DHT22;13877;18.896;-99.222;2023-04-25T00:35:14;30.70;18.00
12413;DHT22;13877;18.896;-99.222;2023-04-25T00:37:40;30.50;18.10
12413;DHT22;13877;18.896;-99.222;2023-04-25T00:40:08;30.40;18.40
12413;DHT22;13877;18.896;-99.222;2023-04-25T00:42:36;30.20;18.40
12413;DHT22;13877;18.896;-99.222;2023-04-25T00:45:06;30.20;18.00
12413;DHT22;13877;18.896;-99.222;2023-04-25T00:47:33;30.10;18.20
12413;DHT22;13877;18.896;-99.222;2023-04-25T00:50:01;29.90;18.40
12413;DHT22;13877;18.896;-99.222;2023-04-25T00:52:29;29.70;18.60
12413;DHT22;13877;18.896;-99.222;2023-04-25T00:54:55;29.50;18.80
12413;DHT22;13877;18.896;-99.222;2023-04-25T00:57:23;29.50;18.70
12413;DHT22;13877;18.896;-99.222;2023-04-25T00:59:51;29.40;18.90
12413;DHT22;13877;18.896;-99.222;2023-04-25T01:02:19;29.40;18.80
12413;DHT22;13877;18.896;-99.222;2023-04-25T01:04:47;29.30;18.90
12413;DHT22;13877;18.896;-99.222;2023-04-25T01:07:15;29.20;19.00
12413;DHT22;13877;18.896;-99.222;2023-04-25T01:09:43;29.00;19.10
12413;DHT22;13877;18.896;-99.222;2023-04-25T01:12:10;28.80;19.40
12413;DHT22;13877;18.896;-99.222;2023-04-25T01:14:37;28.60;19.40
12413;DHT22;13877;18.896;-99.222;2023-04-25T01:17:05;28.50;19.60
12413;DHT22;13877;18.896;-99.222;2023-04-25T01:19:34;28.40;19.50
12413;DHT22;13877;18.896;-99.222;2023-04-25T01:22:02;28.30;19.70
12413;DHT22;13877;18.896;-99.222;2023-04-25T01:24:32;28.10;19.80
12413;DHT22;13877;18.896;-99.222;2023-04-25T01:27:00;28.10;19.80
12413;DHT22;13877;18.896;-99.222;2023-04-25T01:29:28;27.80;20.20
12413;DHT22;13877;18.896;-99.222;2023-04-25T01:31:56;27.70;20.30
12413;DHT22;13877;18.896;-99.222;2023-04-25T01:34:25;27.50;20.40
12413;DHT22;13877;18.896;-99.222;2023-04-25T01:36:53;27.40;20.60
12413;DHT22;13877;18.896;-99.222;2023-04-25T01:39:20;27.30;20.30
12413;DHT22;13877;18.896;-99.222;2023-04-25T01:41:48;27.40;19.50
12413;DHT22;13877;18.896;-99.222;2023-04-25T01:44:15;27.40;18.90
12413;DHT22;13877;18.896;-99.222;2023-04-25T01:46:44;27.40;18.90
12413;DHT22;13877;18.896;-99.222;2023-04-25T01:49:11;27.30;18.70
12413;DHT22;13877;18.896;-99.222;2023-04-25T01:51:40;27.20;18.00
12413;DHT22;13877;18.896;-99.222;2023-04-25T01:54:08;27.30;17.50
12413;DHT22;13877;18.896;-99.222;2023-04-25T01:56:39;27.20;17.20
12413;DHT22;13877;18.896;-99.222;2023-04-25T01:59:08;27.30;16.90
12413;DHT22;13877;18.896;-99.222;2023-04-25T02:01:52;27.30;17.20
12413;DHT22;13877;18.896;-99.222;2023-04-25T02:04:26;27.00;17.30
12413;DHT22;13877;18.896;-99.222;2023-04-25T02:06:53;26.90;17.40
12413;DHT22;13877;18.896;-99.222;2023-04-25T02:09:20;26.70;17.50
12413;DHT22;13877;18.896;-99.222;2023-04-25T02:11:52;26.50;17.70
12413;DHT22;13877;18.896;-99.222;2023-04-25T02:14:48;26.40;17.40
12413;DHT22;13877;18.896;-99.222;2023-04-25T02:17:26;26.50;17.60
12413;DHT22;13877;18.896;-99.222;2023-04-25T02:19:54;26.50;18.00
12413;DHT22;13877;18.896;-99.222;2023-04-25T02:22:20;26.30;18.70
12413;DHT22;13877;18.896;-99.222;2023-04-25T02:24:48;26.40;19.00
12413;DHT22;13877;18.896;-99.222;2023-04-25T02:27:14;26.30;19.10
12413;DHT22;13877;18.896;-99.222;2023-04-25T02:29:42;26.30;20.00
12413;DHT22;13877;18.896;-99.222;2023-04-25T02:32:10;26.30;19.80
12413;DHT22;13877;18.896;-99.222;2023-04-25T02:34:37;26.20;20.30
12413;DHT22;13877;18.896;-99.222;2023-04-25T02:37:04;26.00;20.50
12413;DHT22;13877;18.896;-99.222;2023-04-25T02:39:31;26.00;20.90
12413;DHT22;13877;18.896;-99.222;2023-04-25T02:41:58;25.70;21.30
12413;DHT22;13877;18.896;-99.222;2023-04-25T02:44:25;25.60;21.90
12413;DHT22;13877;18.896;-99.222;2023-04-25T02:46:52;25.50;22.90
12413;DHT22;13877;18.896;-99.222;2023-04-25T02:49:19;25.50;22.70
12413;DHT22;13877;18.896;-99.222;2023-04-25T02:51:46;25.40;22.90
12413;DHT22;13877;18.896;-99.222;2023-04-25T02:54:13;25.40;23.20
12413;DHT22;13877;18.896;-99.222;2023-04-25T02:56:43;25.30;23.40
12413;DHT22;13877;18.896;-99.222;2023-04-25T02:59:16;25.20;23.70
12413;DHT22;13877;18.896;-99.222;2023-04-25T03:01:43;25.10;24.00
12413;DHT22;13877;18.896;-99.222;2023-04-25T03:04:10;25.00;24.70
12413;DHT22;13877;18.896;-99.222;2023-04-25T03:06:37;24.90;25.10
12413;DHT22;13877;18.896;-99.222;2023-04-25T03:09:04;24.90;25.80
12413;DHT22;13877;18.896;-99.222;2023-04-25T03:11:32;24.80;26.10
12413;DHT22;13877;18.896;-99.222;2023-04-25T03:13:59;24.80;26.90
12413;DHT22;13877;18.896;-99.222;2023-04-25T03:16:26;24.80;27.40
12413;DHT22;13877;18.896;-99.222;2023-04-25T03:18:53;24.80;27.80
12413;DHT22;13877;18.896;-99.222;2023-04-25T03:21:20;24.70;28.10
12413;DHT22;13877;18.896;-99.222;2023-04-25T03:23:47;24.60;28.50
12413;DHT22;13877;18.896;-99.222;2023-04-25T03:26:14;24.60;28.80
12413;DHT22;13877;18.896;-99.222;2023-04-25T03:28:42;24.40;29.80
12413;DHT22;13877;18.896;-99.222;2023-04-25T03:31:09;24.20;29.60
12413;DHT22;13877;18.896;-99.222;2023-04-25T03:33:36;24.00;30.10
12413;DHT22;13877;18.896;-99.222;2023-04-25T03:36:03;23.90;30.50
12413;DHT22;13877;18.896;-99.222;2023-04-25T03:38:30;24.30;30.60
12413;DHT22;13877;18.896;-99.222;2023-04-25T03:40:58;24.40;28.90
12413;DHT22;13877;18.896;-99.222;2023-04-25T03:43:34;24.10;31.30
12413;DHT22;13877;18.896;-99.222;2023-04-25T03:46:06;23.90;32.70
12413;DHT22;13877;18.896;-99.222;2023-04-25T03:48:33;23.70;33.20
12413;DHT22;13877;18.896;-99.222;2023-04-25T03:51:00;23.80;34.00
12413;DHT22;13877;18.896;-99.222;2023-04-25T03:53:27;23.60;33.90
12413;DHT22;13877;18.896;-99.222;2023-04-25T03:56:20;23.50;34.70
12413;DHT22;13877;18.896;-99.222;2023-04-25T03:58:54;23.30;34.60
12413;DHT22;13877;18.896;-99.222;2023-04-25T04:01:24;23.20;35.30
12413;DHT22;13877;18.896;-99.222;2023-04-25T04:03:52;23.20;34.60
12413;DHT22;13877;18.896;-99.222;2023-04-25T04:06:19;23.10;34.50
12413;DHT22;13877;18.896;-99.222;2023-04-25T04:08:50;23.00;35.60
12413;DHT22;13877;18.896;-99.222;2023-04-25T04:11:18;22.80;34.90
12413;DHT22;13877;18.896;-99.222;2023-04-25T04:13:45;23.00;35.80
12413;DHT22;13877;18.896;-99.222;2023-04-25T04:16:12;23.00;35.50
12413;DHT22;13877;18.896;-99.222;2023-04-25T04:18:39;22.90;34.80
12413;DHT22;13877;18.896;-99.222;2023-04-25T04:21:06;22.90;32.60
12413;DHT22;13877;18.896;-99.222;2023-04-25T04:23:36;22.80;33.40
12413;DHT22;13877;18.896;-99.222;2023-04-25T04:26:04;22.70;32.70
12413;DHT22;13877;18.896;-99.222;2023-04-25T04:28:50;22.90;30.30
12413;DHT22;13877;18.896;-99.222;2023-04-25T04:31:38;23.10;30.40
12413;DHT22;13877;18.896;-99.222;2023-04-25T04:34:05;23.20;30.00
12413;DHT22;13877;18.896;-99.222;2023-04-25T04:36:34;23.20;30.00
12413;DHT22;13877;18.896;-99.222;2023-04-25T04:39:01;23.30;30.70
12413;DHT22;13877;18.896;-99.222;2023-04-25T04:41:39;23.30;30.90
12413;DHT22;13877;18.896;-99.222;2023-04-25T04:44:11;23.20;31.70
12413;DHT22;13877;18.896;-99.222;2023-04-25T04:46:56;23.20;31.90
12413;DHT22;13877;18.896;-99.222;2023-04-25T04:49:42;23.10;32.10
12413;DHT22;13877;18.896;-99.222;2023-04-25T04:52:20;22.80;32.50
12413;DHT22;13877;18.896;-99.222;2023-04-25T04:55:08;22.90;33.30
12413;DHT22;13877;18.896;-99.222;2023-04-25T04:57:52;22.60;33.20
12413;DHT22;13877;18.896;-99.222;2023-04-25T05:00:33;22.20;34.10
12413;DHT22;13877;18.896;-99.222;2023-04-25T05:03:12;22.10;34.40
12413;DHT22;13877;18.896;-99.222;2023-04-25T05:05:49;22.50;33.10
12413;DHT22;13877;18.896;-99.222;2023-04-25T05:08:39;23.00;32.10
12413;DHT22;13877;18.896;-99.222;2023-04-25T05:11:24;23.20;31.40
12413;DHT22;13877;18.896;-99.222;2023-04-25T05:14:12;22.80;32.10
12413;DHT22;13877;18.896;-99.222;2023-04-25T05:16:49;22.40;32.80
12413;DHT22;13877;18.896;-99.222;2023-04-25T05:19:37;22.40;32.50
12413;DHT22;13877;18.896;-99.222;2023-04-25T05:22:33;22.50;32.50
12413;DHT22;13877;18.896;-99.222;2023-04-25T05:25:14;22.50;32.00
12413;DHT22;13877;18.896;-99.222;2023-04-25T05:27:58;22.70;31.90
12413;DHT22;13877;18.896;-99.222;2023-04-25T05:30:39;22.80;31.70
12413;DHT22;13877;18.896;-99.222;2023-04-25T05:33:11;22.90;31.60
12413;DHT22;13877;18.896;-99.222;2023-04-25T05:35:38;22.80;32.20
12413;DHT22;13877;18.896;-99.222;2023-04-25T05:38:05;22.70;32.20
12413;DHT22;13877;18.896;-99.222;2023-04-25T05:40:51;22.50;32.70
12413;DHT22;13877;18.896;-99.222;2023-04-25T05:43:41;22.50;32.10
12413;DHT22;13877;18.896;-99.222;2023-04-25T05:46:34;22.60;32.10
12413;DHT22;13877;18.896;-99.222;2023-04-25T05:49:20;22.50;32.30
12413;DHT22;13877;18.896;-99.222;2023-04-25T05:52:02;22.50;32.40
12413;DHT22;13877;18.896;-99.222;2023-04-25T05:54:54;22.30;33.20
12413;DHT22;13877;18.896;-99.222;2023-04-25T05:57:25;22.50;32.70
12413;DHT22;13877;18.896;-99.222;2023-04-25T05:59:54;22.60;32.60
12413;DHT22;13877;18.896;-99.222;2023-04-25T06:02:25;22.40;32.60
12413;DHT22;13877;18.896;-99.222;2023-04-25T06:04:53;22.10;33.50
12413;DHT22;13877;18.896;-99.222;2023-04-25T06:07:22;21.80;33.90
12413;DHT22;13877;18.896;-99.222;2023-04-25T06:09:49;21.70;33.90
12413;DHT22;13877;18.896;-99.222;2023-04-25T06:12:16;21.80;33.70
12413;DHT22;13877;18.896;-99.222;2023-04-25T06:14:43;21.70;33.50
12413;DHT22;13877;18.896;-99.222;2023-04-25T06:17:10;21.60;33.80
12413;DHT22;13877;18.896;-99.222;2023-04-25T06:19:37;21.60;33.90
12413;DHT22;13877;18.896;-99.222;2023-04-25T06:22:04;22.10;33.30
12413;DHT22;13877;18.896;-99.222;2023-04-25T06:24:33;21.90;33.50
12413;DHT22;13877;18.896;-99.222;2023-04-25T06:27:03;21.60;34.40
12413;DHT22;13877;18.896;-99.222;2023-04-25T06:29:30;21.40;34.30
12413;DHT22;13877;18.896;-99.222;2023-04-25T06:31:58;21.30;34.40
12413;DHT22;13877;18.896;-99.222;2023-04-25T06:34:25;21.20;34.40
12413;DHT22;13877;18.896;-99.222;2023-04-25T06:36:52;21.20;34.80
12413;DHT22;13877;18.896;-99.222;2023-04-25T06:39:20;21.10;35.20
12413;DHT22;13877;18.896;-99.222;2023-04-25T06:41:49;21.10;35.80
12413;DHT22;13877;18.896;-99.222;2023-04-25T06:44:34;21.20;35.90
12413;DHT22;13877;18.896;-99.222;2023-04-25T06:47:04;21.20;36.30
12413;DHT22;13877;18.896;-99.222;2023-04-25T06:49:30;21.10;36.50
12413;DHT22;13877;18.896;-99.222;2023-04-25T06:51:58;21.50;37.00
12413;DHT22;13877;18.896;-99.222;2023-04-25T06:54:24;21.60;36.50
12413;DHT22;13877;18.896;-99.222;2023-04-25T06:57:01;21.50;36.60
12413;DHT22;13877;18.896;-99.222;2023-04-25T06:59:28;21.30;37.20
12413;DHT22;13877;18.896;-99.222;2023-04-25T07:01:56;21.30;37.80
12413;DHT22;13877;18.896;-99.222;2023-04-25T07:04:25;21.10;38.30
12413;DHT22;13877;18.896;-99.222;2023-04-25T07:06:55;20.90;38.80
12413;DHT22;13877;18.896;-99.222;2023-04-25T07:09:36;20.90;38.70
12413;DHT22;13877;18.896;-99.222;2023-04-25T07:12:05;21.10;38.60
12413;DHT22;13877;18.896;-99.222;2023-04-25T07:14:33;21.10;38.60
12413;DHT22;13877;18.896;-99.222;2023-04-25T07:17:00;21.40;38.00
12413;DHT22;13877;18.896;-99.222;2023-04-25T07:19:30;21.40;37.90
12413;DHT22;13877;18.896;-99.222;2023-04-25T07:22:00;21.40;38.00
12413;DHT22;13877;18.896;-99.222;2023-04-25T07:24:27;21.40;38.50
12413;DHT22;13877;18.896;-99.222;2023-04-25T07:26:56;21.50;38.70
12413;DHT22;13877;18.896;-99.222;2023-04-25T07:29:27;21.50;38.40
12413;DHT22;13877;18.896;-99.222;2023-04-25T07:31:58;21.30;38.90
12413;DHT22;13877;18.896;-99.222;2023-04-25T07:34:25;21.20;39.20
12413;DHT22;13877;18.896;-99.222;2023-04-25T07:36:52;21.00;39.80
12413;DHT22;13877;18.896;-99.222;2023-04-25T07:39:21;21.00;40.10
12413;DHT22;13877;18.896;-99.222;2023-04-25T07:41:49;21.10;40.00
12413;DHT22;13877;18.896;-99.222;2023-04-25T07:44:23;21.00;40.10
12413;DHT22;13877;18.896;-99.222;2023-04-25T07:46:50;21.00;40.20
12413;DHT22;13877;18.896;-99.222;2023-04-25T07:49:17;20.80;40.60
12413;DHT22;13877;18.896;-99.222;2023-04-25T07:51:44;20.80;40.90
12413;DHT22;13877;18.896;-99.222;2023-04-25T07:54:15;20.80;41.30
12413;DHT22;13877;18.896;-99.222;2023-04-25T07:56:47;20.80;41.20
12413;DHT22;13877;18.896;-99.222;2023-04-25T07:59:14;20.90;40.80
12413;DHT22;13877;18.896;-99.222;2023-04-25T08:01:45;20.90;40.80
12413;DHT22;13877;18.896;-99.222;2023-04-25T08:04:12;20.90;40.70
12413;DHT22;13877;18.896;-99.222;2023-04-25T08:07:02;20.90;40.90
12413;DHT22;13877;18.896;-99.222;2023-04-25T08:09:36;20.90;40.80
12413;DHT22;13877;18.896;-99.222;2023-04-25T08:12:06;20.90;41.00
12413;DHT22;13877;18.896;-99.222;2023-04-25T08:14:34;20.90;40.90
12413;DHT22;13877;18.896;-99.222;2023-04-25T08:17:06;20.90;40.70
12413;DHT22;13877;18.896;-99.222;2023-04-25T08:19:38;21.10;40.60
12413;DHT22;13877;18.896;-99.222;2023-04-25T08:22:07;21.10;40.90
12413;DHT22;13877;18.896;-99.222;2023-04-25T08:24:45;21.20;41.50
12413;DHT22;13877;18.896;-99.222;2023-04-25T08:27:12;21.20;41.40
12413;DHT22;13877;18.896;-99.222;2023-04-25T08:29:41;21.10;41.30
12413;DHT22;13877;18.896;-99.222;2023-04-25T08:32:09;21.00;41.50
12413;DHT22;13877;18.896;-99.222;2023-04-25T08:34:41;20.90;41.50
12413;DHT22;13877;18.896;-99.222;2023-04-25T08:37:09;20.90;41.60
12413;DHT22;13877;18.896;-99.222;2023-04-25T08:40:12;20.90;41.40
12413;DHT22;13877;18.896;-99.222;2023-04-25T08:42:50;20.90;41.40
12413;DHT22;13877;18.896;-99.222;2023-04-25T08:45:19;20.80;41.80
12413;DHT22;13877;18.896;-99.222;2023-04-25T08:47:48;20.80;42.10
12413;DHT22;13877;18.896;-99.222;2023-04-25T08:50:17;20.80;42.20
12413;DHT22;13877;18.896;-99.222;2023-04-25T08:52:47;20.80;42.40
12413;DHT22;13877;18.896;-99.222;2023-04-25T08:55:16;20.70;43.00
12413;DHT22;13877;18.896;-99.222;2023-04-25T08:57:43;20.70;42.50
12413;DHT22;13877;18.896;-99.222;2023-04-25T09:00:12;20.70;42.20
12413;DHT22;13877;18.896;-99.222;2023-04-25T09:02:43;20.70;43.30
12413;DHT22;13877;18.896;-99.222;2023-04-25T09:05:13;20.70;42.50
12413;DHT22;13877;18.896;-99.222;2023-04-25T09:07:41;20.70;42.50
12413;DHT22;13877;18.896;-99.222;2023-04-25T09:10:08;20.70;42.40
12413;DHT22;13877;18.896;-99.222;2023-04-25T09:12:37;20.70;42.40
12413;DHT22;13877;18.896;-99.222;2023-04-25T09:15:12;20.80;42.70
12413;DHT22;13877;18.896;-99.222;2023-04-25T09:18:03;20.70;43.00
12413;DHT22;13877;18.896;-99.222;2023-04-25T09:20:41;20.60;43.00
12413;DHT22;13877;18.896;-99.222;2023-04-25T09:23:09;20.50;43.40
12413;DHT22;13877;18.896;-99.222;2023-04-25T09:25:38;20.40;43.60
12413;DHT22;13877;18.896;-99.222;2023-04-25T09:28:07;20.50;44.00
12413;DHT22;13877;18.896;-99.222;2023-04-25T09:30:35;20.40;43.90
12413;DHT22;13877;18.896;-99.222;2023-04-25T09:33:33;20.40;44.30
12413;DHT22;13877;18.896;-99.222;2023-04-25T09:36:05;20.30;44.70
12413;DHT22;13877;18.896;-99.222;2023-04-25T09:39:02;20.40;44.50
12413;DHT22;13877;18.896;-99.222;2023-04-25T09:41:37;20.40;45.10
12413;DHT22;13877;18.896;-99.222;2023-04-25T09:44:06;20.30;45.80
12413;DHT22;13877;18.896;-99.222;2023-04-25T09:46:36;20.30;45.80
12413;DHT22;13877;18.896;-99.222;2023-04-25T09:49:08;20.30;45.80
12413;DHT22;13877;18.896;-99.222;2023-04-25T09:51:57;20.30;45.20
12413;DHT22;13877;18.896;-99.222;2023-04-25T09:54:28;20.40;44.50
12413;DHT22;13877;18.896;-99.222;2023-04-25T09:57:19;20.40;43.80
12413;DHT22;13877;18.896;-99.222;2023-04-25T09:59:49;20.40;44.20
12413;DHT22;13877;18.896;-99.222;2023-04-25T10:02:21;20.40;43.50
12413;DHT22;13877;18.896;-99.222;2023-04-25T10:04:53;20.40;43.40
12413;DHT22;13877;18.896;-99.222;2023-04-25T10:07:30;20.40;43.10
12413;DHT22;13877;18.896;-99.222;2023-04-25T10:10:03;20.40;43.30
12413;DHT22;13877;18.896;-99.222;2023-04-25T10:12:32;20.40;43.10
12413;DHT22;13877;18.896;-99.222;2023-04-25T10:15:00;20.30;43.60
12413;DHT22;13877;18.896;-99.222;2023-04-25T10:17:27;20.30;43.00
12413;DHT22;13877;18.896;-99.222;2023-04-25T10:19:54;20.30;42.90
12413;DHT22;13877;18.896;-99.222;2023-04-25T10:22:35;20.40;42.40
12413;DHT22;13877;18.896;-99.222;2023-04-25T10:25:03;20.30;42.20
12413;DHT22;13877;18.896;-99.222;2023-04-25T10:27:31;20.20;42.80
12413;DHT22;13877;18.896;-99.222;2023-04-25T10:30:10;20.20;42.20
12413;DHT22;13877;18.896;-99.222;2023-04-25T10:32:38;20.30;42.20
12413;DHT22;13877;18.896;-99.222;2023-04-25T10:35:12;20.30;42.20
12413;DHT22;13877;18.896;-99.222;2023-04-25T10:40:26;20.30;42.80
12413;DHT22;13877;18.896;-99.222;2023-04-25T10:42:53;20.30;43.70
12413;DHT22;13877;18.896;-99.222;2023-04-25T10:45:22;20.30;43.30
12413;DHT22;13877;18.896;-99.222;2023-04-25T10:47:49;20.20;43.50
12413;DHT22;13877;18.896;-99.222;2023-04-25T10:50:16;20.20;43.90
12413;DHT22;13877;18.896;-99.222;2023-04-25T10:52:43;20.00;44.50
12413;DHT22;13877;18.896;-99.222;2023-04-25T10:55:11;20.00;44.60
12413;DHT22;13877;18.896;-99.222;2023-04-25T10:57:41;19.90;44.80
12413;DHT22;13877;18.896;-99.222;2023-04-25T11:00:16;19.80;45.00
12413;DHT22;13877;18.896;-99.222;2023-04-25T11:02:49;19.80;45.20
12413;DHT22;13877;18.896;-99.222;2023-04-25T11:05:33;19.80;45.10
12413;DHT22;13877;18.896;-99.222;2023-04-25T11:08:01;19.90;44.60
12413;DHT22;13877;18.896;-99.222;2023-04-25T11:10:31;19.90;44.30
12413;DHT22;13877;18.896;-99.222;2023-04-25T11:12:59;20.00;44.30
12413;DHT22;13877;18.896;-99.222;2023-04-25T11:15:26;19.90;44.30
12413;DHT22;13877;18.896;-99.222;2023-04-25T11:17:54;20.00;44.20
12413;DHT22;13877;18.896;-99.222;2023-04-25T11:20:22;20.00;43.70
12413;DHT22;13877;18.896;-99.222;2023-04-25T11:22:52;20.10;43.50
12413;DHT22;13877;18.896;-99.222;2023-04-25T11:25:20;20.10;43.30
12413;DHT22;13877;18.896;-99.222;2023-04-25T11:27:55;20.10;43.30
12413;DHT22;13877;18.896;-99.222;2023-04-25T11:30:25;20.00;43.10
12413;DHT22;13877;18.896;-99.222;2023-04-25T11:32:53;20.10;43.20
12413;DHT22;13877;18.896;-99.222;2023-04-25T11:35:20;20.00;43.40
12413;DHT22;13877;18.896;-99.222;2023-04-25T11:37:49;20.00;43.80
12413;DHT22;13877;18.896;-99.222;2023-04-25T11:40:16;19.90;44.30
12413;DHT22;13877;18.896;-99.222;2023-04-25T11:42:45;19.90;44.40
12413;DHT22;13877;18.896;-99.222;2023-04-25T11:45:13;19.90;44.20
12413;DHT22;13877;18.896;-99.222;2023-04-25T11:47:40;19.90;44.10
12413;DHT22;13877;18.896;-99.222;2023-04-25T11:50:08;20.00;44.20
12413;DHT22;13877;18.896;-99.222;2023-04-25T11:52:42;20.00;44.40
12413;DHT22;13877;18.896;-99.222;2023-04-25T11:55:20;19.90;44.60
12413;DHT22;13877;18.896;-99.222;2023-04-25T11:57:48;19.80;44.80
12413;DHT22;13877;18.896;-99.222;2023-04-25T12:00:18;19.80;45.30
12413;DHT22;13877;18.896;-99.222;2023-04-25T12:02:50;19.80;45.10
12413;DHT22;13877;18.896;-99.222;2023-04-25T12:05:18;19.80;44.90
12413;DHT22;13877;18.896;-99.222;2023-04-25T12:07:46;19.90;43.90
12413;DHT22;13877;18.896;-99.222;2023-04-25T12:10:16;20.00;43.80
12413;DHT22;13877;18.896;-99.222;2023-04-25T12:12:44;20.00;43.40
12413;DHT22;13877;18.896;-99.222;2023-04-25T12:15:17;20.00;43.10
12413;DHT22;13877;18.896;-99.222;2023-04-25T12:17:49;19.90;43.00
12413;DHT22;13877;18.896;-99.222;2023-04-25T12:20:18;19.90;43.10
12413;DHT22;13877;18.896;-99.222;2023-04-25T12:22:52;19.90;42.80
12413;DHT22;13877;18.896;-99.222;2023-04-25T12:25:39;19.90;42.60
12413;DHT22;13877;18.896;-99.222;2023-04-25T12:28:14;19.90;42.80
12413;DHT22;13877;18.896;-99.222;2023-04-25T12:31:01;19.90;42.70
12413;DHT22;13877;18.896;-99.222;2023-04-25T12:33:34;19.90;42.10
12413;DHT22;13877;18.896;-99.222;2023-04-25T12:36:03;20.10;41.70
12413;DHT22;13877;18.896;-99.222;2023-04-25T12:38:40;20.10;41.20
12413;DHT22;13877;18.896;-99.222;2023-04-25T12:41:08;20.10;40.90
12413;DHT22;13877;18.896;-99.222;2023-04-25T12:43:35;20.10;41.10
12413;DHT22;13877;18.896;-99.222;2023-04-25T12:46:02;20.20;41.20
12413;DHT22;13877;18.896;-99.222;2023-04-25T12:48:29;20.10;41.60
12413;DHT22;13877;18.896;-99.222;2023-04-25T12:50:56;20.10;41.80
12413;DHT22;13877;18.896;-99.222;2023-04-25T12:53:23;20.10;42.30
12413;DHT22;13877;18.896;-99.222;2023-04-25T12:55:51;20.10;42.30
12413;DHT22;13877;18.896;-99.222;2023-04-25T12:58:19;20.10;42.30
12413;DHT22;13877;18.896;-99.222;2023-04-25T13:00:46;20.30;42.70
12413;DHT22;13877;18.896;-99.222;2023-04-25T13:03:13;20.50;42.50
12413;DHT22;13877;18.896;-99.222;2023-04-25T13:05:40;20.70;42.40
12413;DHT22;13877;18.896;-99.222;2023-04-25T13:08:07;20.90;42.80
12413;DHT22;13877;18.896;-99.222;2023-04-25T13:10:34;21.10;42.90
12413;DHT22;13877;18.896;-99.222;2023-04-25T13:13:02;21.30;42.50
12413;DHT22;13877;18.896;-99.222;2023-04-25T13:15:29;21.50;41.80
12413;DHT22;13877;18.896;-99.222;2023-04-25T13:17:57;21.60;41.80
12413;DHT22;13877;18.896;-99.222;2023-04-25T13:20:26;21.90;41.80
12413;DHT22;13877;18.896;-99.222;2023-04-25T13:22:53;22.10;42.30
12413;DHT22;13877;18.896;-99.222;2023-04-25T13:25:20;22.30;42.20
12413;DHT22;13877;18.896;-99.222;2023-04-25T13:27:48;22.40;42.10
12413;DHT22;13877;18.896;-99.222;2023-04-25T13:30:15;22.50;41.80
12413;DHT22;13877;18.896;-99.222;2023-04-25T13:32:42;22.70;41.50
12413;DHT22;13877;18.896;-99.222;2023-04-25T13:35:12;22.80;41.60
12413;DHT22;13877;18.896;-99.222;2023-04-25T13:37:40;22.90;42.00
12413;DHT22;13877;18.896;-99.222;2023-04-25T13:40:09;23.00;42.10
12413;DHT22;13877;18.896;-99.222;2023-04-25T13:42:38;23.10;42.40
12413;DHT22;13877;18.896;-99.222;2023-04-25T13:45:05;23.10;42.70
12413;DHT22;13877;18.896;-99.222;2023-04-25T13:47:32;23.30;44.90
12413;DHT22;13877;18.896;-99.222;2023-04-25T13:49:59;23.50;45.10
12413;DHT22;13877;18.896;-99.222;2023-04-25T13:52:26;23.60;45.10
12413;DHT22;13877;18.896;-99.222;2023-04-25T13:54:53;23.80;45.20
12413;DHT22;13877;18.896;-99.222;2023-04-25T13:57:20;23.90;45.40
12413;DHT22;13877;18.896;-99.222;2023-04-25T13:59:47;24.10;45.90
12413;DHT22;13877;18.896;-99.222;2023-04-25T14:02:14;23.70;45.90
12413;DHT22;13877;18.896;-99.222;2023-04-25T14:04:41;23.80;46.50
12413;DHT22;13877;18.896;-99.222;2023-04-25T14:07:09;23.90;46.30
12413;DHT22;13877;18.896;-99.222;2023-04-25T14:09:37;23.80;47.20
12413;DHT22;13877;18.896;-99.222;2023-04-25T14:12:04;23.50;47.50
12413;DHT22;13877;18.896;-99.222;2023-04-25T14:14:32;23.50;48.20
12413;DHT22;13877;18.896;-99.222;2023-04-25T14:16:59;23.50;48.20
12413;DHT22;13877;18.896;-99.222;2023-04-25T14:19:26;23.70;48.40
12413;DHT22;13877;18.896;-99.222;2023-04-25T14:21:54;23.70;48.10
12413;DHT22;13877;18.896;-99.222;2023-04-25T14:24:20;24.10;47.60
12413;DHT22;13877;18.896;-99.222;2023-04-25T14:26:48;24.40;47.50
12413;DHT22;13877;18.896;-99.222;2023-04-25T14:29:14;24.40;46.70
12413;DHT22;13877;18.896;-99.222;2023-04-25T14:31:41;24.20;46.70
12413;DHT22;13877;18.896;-99.222;2023-04-25T14:34:08;24.40;47.30
12413;DHT22;13877;18.896;-99.222;2023-04-25T14:36:36;24.60;46.50
12413;DHT22;13877;18.896;-99.222;2023-04-25T14:39:03;25.20;45.90
12413;DHT22;13877;18.896;-99.222;2023-04-25T14:41:31;24.70;45.20
12413;DHT22;13877;18.896;-99.222;2023-04-25T14:43:58;25.50;45.50
12413;DHT22;13877;18.896;-99.222;2023-04-25T14:46:25;26.30;43.80
12413;DHT22;13877;18.896;-99.222;2023-04-25T14:48:53;26.90;42.60
12413;DHT22;13877;18.896;-99.222;2023-04-25T14:51:22;26.80;42.30
12413;DHT22;13877;18.896;-99.222;2023-04-25T14:53:49;26.80;43.40
12413;DHT22;13877;18.896;-99.222;2023-04-25T14:56:18;25.40;44.50
12413;DHT22;13877;18.896;-99.222;2023-04-25T14:58:45;26.10;44.40
12413;DHT22;13877;18.896;-99.222;2023-04-25T15:01:13;26.60;43.60
12413;DHT22;13877;18.896;-99.222;2023-04-25T15:03:41;27.00;42.60
12413;DHT22;13877;18.896;-99.222;2023-04-25T15:06:08;27.10;42.30
12413;DHT22;13877;18.896;-99.222;2023-04-25T15:08:35;27.10;42.20
12413;DHT22;13877;18.896;-99.222;2023-04-25T15:11:02;26.90;42.70
12413;DHT22;13877;18.896;-99.222;2023-04-25T15:13:29;26.60;43.00
12413;DHT22;13877;18.896;-99.222;2023-04-25T15:15:57;26.40;43.50
12413;DHT22;13877;18.896;-99.222;2023-04-25T15:18:24;26.90;43.30
12413;DHT22;13877;18.896;-99.222;2023-04-25T15:20:52;26.70;42.20
12413;DHT22;13877;18.896;-99.222;2023-04-25T15:23:20;27.00;42.30
12413;DHT22;13877;18.896;-99.222;2023-04-25T15:25:49;27.10;43.00